sensor_id;sensor_type;location;lat;lon;timestamp;pressure;altitude;pressure_sealevel;temperature;humidity
12213;BME280;6169;44.158;22.788;2023-02-15T00:02:33;102544.94;;;6.42;50.65
12213;BME280;6169;44.158;22.788;2023-02-15T00:07:37;102552.94;;;6.52;50.02
12213;BME280;6169;44.158;22.788;2023-02-15T00:12:39;102552.88;;;6.62;49.24
12213;BME280;6169;44.158;22.788;2023-02-15T00:17:41;102565.09;;;6.56;49.67
12213;BME280;6169;44.158;22.788;2023-02-15T00:22:45;102561.47;;;6.47;49.57
12213;BME280;6169;44.158;22.788;2023-02-15T00:27:47;102552.13;;;6.14;49.79
12213;BME280;6169;44.158;22.788;2023-02-15T00:32:49;102567.81;;;6.19;50.54
12213;BME280;6169;44.158;22.788;2023-02-15T00:37:52;102566.84;;;6.20;50.76
12213;BME280;6169;44.158;22.788;2023-02-15T00:42:54;102568.47;;;6.31;50.31
12213;BME280;6169;44.158;22.788;2023-02-15T00:47:59;102569.00;;;6.07;50.80
12213;BME280;6169;44.158;22.788;2023-02-15T00:53:02;102563.63;;;5.97;51.43
12213;BME280;6169;44.158;22.788;2023-02-15T00:58:05;102567.19;;;6.35;50.60
12213;BME280;6169;44.158;22.788;2023-02-15T01:03:07;102560.22;;;6.42;49.93
12213;BME280;6169;44.158;22.788;2023-02-15T01:08:11;102560.75;;;6.73;49.91
12213;BME280;6169;44.158;22.788;2023-02-15T01:13:14;102561.16;;;6.78;49.51
12213;BME280;6169;44.158;22.788;2023-02-15T01:18:17;102562.81;;;6.61;48.83
12213;BME280;6169;44.158;22.788;2023-02-15T01:23:21;102557.34;;;6.16;48.95
12213;BME280;6169;44.158;22.788;2023-02-15T01:28:24;102569.59;;;5.91;49.17
12213;BME280;6169;44.158;22.788;2023-02-15T01:33:26;102570.59;;;5.80;49.91
12213;BME280;6169;44.158;22.788;2023-02-15T01:38:29;102570.72;;;5.88;49.77
12213;BME280;6169;44.158;22.788;2023-02-15T01:43:40;102564.94;;;5.83;49.79
12213;BME280;6169;44.158;22.788;2023-02-15T01:48:43;102559.72;;;5.62;49.35
12213;BME280;6169;44.158;22.788;2023-02-15T01:53:50;102570.47;;;5.72;49.65
12213;BME280;6169;44.158;22.788;2023-02-15T01:58:55;102570.19;;;5.65;48.31
12213;BME280;6169;44.158;22.788;2023-02-15T02:04:04;102565.78;;;5.35;49.43
12213;BME280;6169;44.158;22.788;2023-02-15T02:09:09;102565.38;;;5.39;50.05
12213;BME280;6169;44.158;22.788;2023-02-15T02:14:11;102556.47;;;5.58;50.11
12213;BME280;6169;44.158;22.788;2023-02-15T02:19:54;102560.56;;;5.92;49.60
12213;BME280;6169;44.158;22.788;2023-02-15T02:25:28;102552.75;;;5.89;50.23
12213;BME280;6169;44.158;22.788;2023-02-15T02:30:52;102559.25;;;5.96;50.00
12213;BME280;6169;44.158;22.788;2023-02-15T02:36:08;102567.78;;;5.81;49.81
12213;BME280;6169;44.158;22.788;2023-02-15T02:41:17;102563.09;;;5.35;50.07
12213;BME280;6169;44.158;22.788;2023-02-15T02:46:27;102563.25;;;5.43;50.41
12213;BME280;6169;44.158;22.788;2023-02-15T02:51:32;102559.88;;;5.51;50.72
12213;BME280;6169;44.158;22.788;2023-02-15T02:56:37;102568.78;;;5.42;50.93
12213;BME280;6169;44.158;22.788;2023-02-15T03:01:43;102564.41;;;5.70;50.15
12213;BME280;6169;44.158;22.788;2023-02-15T03:06:51;102565.94;;;5.43;52.06
12213;BME280;6169;44.158;22.788;2023-02-15T03:11:54;102567.19;;;5.88;50.54
12213;BME280;6169;44.158;22.788;2023-02-15T03:16:57;102569.06;;;5.38;50.53
12213;BME280;6169;44.158;22.788;2023-02-15T03:22:04;102580.38;;;5.52;51.41
12213;BME280;6169;44.158;22.788;2023-02-15T03:27:13;102572.16;;;5.44;51.61
12213;BME280;6169;44.158;22.788;2023-02-15T03:32:18;102570.19;;;5.36;52.49
12213;BME280;6169;44.158;22.788;2023-02-15T03:37:26;102569.75;;;5.41;50.91
12213;BME280;6169;44.158;22.788;2023-02-15T03:42:33;102582.06;;;5.63;50.83
12213;BME280;6169;44.158;22.788;2023-02-15T03:47:43;102572.31;;;5.61;50.10
12213;BME280;6169;44.158;22.788;2023-02-15T03:52:49;102586.63;;;5.52;51.33
12213;BME280;6169;44.158;22.788;2023-02-15T03:57:52;102583.47;;;5.37;49.91
12213;BME280;6169;44.158;22.788;2023-02-15T04:03:20;102584.22;;;5.30;50.43
12213;BME280;6169;44.158;22.788;2023-02-15T04:08:26;102589.16;;;5.25;50.57
12213;BME280;6169;44.158;22.788;2023-02-15T04:13:42;102591.41;;;5.20;49.89
12213;BME280;6169;44.158;22.788;2023-02-15T04:18:44;102584.06;;;5.22;50.17
12213;BME280;6169;44.158;22.788;2023-02-15T04:24:05;102591.66;;;4.97;51.29
12213;BME280;6169;44.158;22.788;2023-02-15T04:29:26;102582.47;;;5.09;51.12
12213;BME280;6169;44.158;22.788;2023-02-15T04:34:29;102585.00;;;4.91;52.01
12213;BME280;6169;44.158;22.788;2023-02-15T04:39:33;102586.13;;;4.89;50.57
12213;BME280;6169;44.158;22.788;2023-02-15T04:44:35;102580.59;;;4.81;51.03
12213;BME280;6169;44.158;22.788;2023-02-15T04:49:37;102590.75;;;4.87;50.97
12213;BME280;6169;44.158;22.788;2023-02-15T04:54:41;102581.75;;;4.98;51.17
12213;BME280;6169;44.158;22.788;2023-02-15T04:59:43;102587.06;;;4.78;51.30
12213;BME280;6169;44.158;22.788;2023-02-15T05:04:45;102585.22;;;4.69;51.28
12213;BME280;6169;44.158;22.788;2023-02-15T05:09:49;102582.03;;;4.94;52.50
12213;BME280;6169;44.158;22.788;2023-02-15T05:14:51;102594.78;;;5.02;52.94
12213;BME280;6169;44.158;22.788;2023-02-15T05:19:53;102587.44;;;5.14;51.80
12213;BME280;6169;44.158;22.788;2023-02-15T05:24:57;102579.09;;;5.17;52.47
12213;BME280;6169;44.158;22.788;2023-02-15T05:30:16;102584.34;;;5.19;52.60
12213;BME280;6169;44.158;22.788;2023-02-15T05:35:18;102586.03;;;5.49;52.16
12213;BME280;6169;44.158;22.788;2023-02-15T05:40:22;102596.09;;;5.47;52.47
12213;BME280;6169;44.158;22.788;2023-02-15T05:45:24;102599.38;;;5.70;51.97
12213;BME280;6169;44.158;22.788;2023-02-15T05:50:27;102603.00;;;5.59;51.63
12213;BME280;6169;44.158;22.788;2023-02-15T05:55:30;102611.09;;;5.78;50.32
12213;BME280;6169;44.158;22.788;2023-02-15T06:00:33;102609.81;;;5.53;51.83
12213;BME280;6169;44.158;22.788;2023-02-15T06:05:35;102618.00;;;5.61;52.47
12213;BME280;6169;44.158;22.788;2023-02-15T06:10:39;102619.00;;;5.90;52.33
12213;BME280;6169;44.158;22.788;2023-02-15T06:15:41;102616.03;;;5.93;52.87
12213;BME280;6169;44.158;22.788;2023-02-15T06:20:45;102608.34;;;6.08;53.12
12213;BME280;6169;44.158;22.788;2023-02-15T06:25:49;102618.94;;;6.56;52.23
12213;BME280;6169;44.158;22.788;2023-02-15T06:30:51;102610.59;;;6.59;52.74
12213;BME280;6169;44.158;22.788;2023-02-15T06:35:54;102604.47;;;6.67;53.97
12213;BME280;6169;44.158;22.788;2023-02-15T06:40:57;102608.72;;;7.15;52.71
12213;BME280;6169;44.158;22.788;2023-02-15T06:45:59;102612.56;;;7.12;53.41
12213;BME280;6169;44.158;22.788;2023-02-15T06:51:02;102617.81;;;7.14;53.57
12213;BME280;6169;44.158;22.788;2023-02-15T06:56:07;102618.47;;;7.44;53.38
12213;BME280;6169;44.158;22.788;2023-02-15T07:01:09;102611.34;;;7.43;54.31
12213;BME280;6169;44.158;22.788;2023-02-15T07:06:12;102613.25;;;8.04;52.77
12213;BME280;6169;44.158;22.788;2023-02-15T07:11:16;102612.44;;;7.85;53.78
12213;BME280;6169;44.158;22.788;2023-02-15T07:16:35;102614.59;;;8.60;52.68
12213;BME280;6169;44.158;22.788;2023-02-15T07:21:37;102614.56;;;8.94;51.49
12213;BME280;6169;44.158;22.788;2023-02-15T07:26:41;102612.66;;;8.87;52.27
12213;BME280;6169;44.158;22.788;2023-02-15T07:31:43;102603.16;;;8.74;53.04
12213;BME280;6169;44.158;22.788;2023-02-15T07:36:46;102590.78;;;8.64;52.76
12213;BME280;6169;44.158;22.788;2023-02-15T07:41:51;102604.72;;;9.36;51.45
12213;BME280;6169;44.158;22.788;2023-02-15T07:46:53;102596.59;;;9.93;49.63
12213;BME280;6169;44.158;22.788;2023-02-15T07:51:55;102589.16;;;9.79;50.39
12213;BME280;6169;44.158;22.788;2023-02-15T07:57:00;102588.81;;;9.90;49.26
12213;BME280;6169;44.158;22.788;2023-02-15T08:02:02;102586.47;;;9.62;47.20
12213;BME280;6169;44.158;22.788;2023-02-15T08:07:04;102600.19;;;9.77;47.32
12213;BME280;6169;44.158;22.788;2023-02-15T08:12:08;102595.59;;;9.94;46.30
12213;BME280;6169;44.158;22.788;2023-02-15T08:17:11;102599.69;;;10.62;44.02
12213;BME280;6169;44.158;22.788;2023-02-15T08:22:14;102587.91;;;11.09;43.19
12213;BME280;6169;44.158;22.788;2023-02-15T08:27:18;102599.78;;;11.08;42.60
12213;BME280;6169;44.158;22.788;2023-02-15T08:32:27;102597.75;;;11.10;42.81
12213;BME280;6169;44.158;22.788;2023-02-15T08:37:29;102596.31;;;11.23;41.33
12213;BME280;6169;44.158;22.788;2023-02-15T08:42:34;102591.34;;;11.03;42.24
12213;BME280;6169;44.158;22.788;2023-02-15T08:47:36;102576.78;;;11.50;41.21
12213;BME280;6169;44.158;22.788;2023-02-15T08:52:38;102574.47;;;11.16;41.65
12213;BME280;6169;44.158;22.788;2023-02-15T08:57:41;102582.69;;;11.31;40.84
12213;BME280;6169;44.158;22.788;2023-02-15T09:02:46;102605.00;;;11.87;40.65
12213;BME280;6169;44.158;22.788;2023-02-15T09:07:48;102592.03;;;11.51;39.29
12213;BME280;6169;44.158;22.788;2023-02-15T09:12:51;102580.94;;;11.99;37.62
12213;BME280;6169;44.158;22.788;2023-02-15T09:17:54;102583.03;;;12.12;37.75
12213;BME280;6169;44.158;22.788;2023-02-15T09:22:56;102584.97;;;11.80;37.86
12213;BME280;6169;44.158;22.788;2023-02-15T09:27:59;102591.34;;;12.25;36.51
12213;BME280;6169;44.158;22.788;2023-02-15T09:33:02;102584.97;;;12.77;35.88
12213;BME280;6169;44.158;22.788;2023-02-15T09:38:04;102574.97;;;12.63;35.82
12213;BME280;6169;44.158;22.788;2023-02-15T09:43:21;102570.09;;;12.28;35.77
12213;BME280;6169;44.158;22.788;2023-02-15T09:48:38;102561.63;;;12.68;35.84
12213;BME280;6169;44.158;22.788;2023-02-15T09:53:54;102552.72;;;12.74;34.43
12213;BME280;6169;44.158;22.788;2023-02-15T09:59:02;102551.19;;;13.23;34.33
12213;BME280;6169;44.158;22.788;2023-02-15T10:04:23;102538.41;;;13.44;34.83
12213;BME280;6169;44.158;22.788;2023-02-15T10:09:39;102538.94;;;12.97;34.29
12213;BME280;6169;44.158;22.788;2023-02-15T10:15:01;102528.00;;;13.27;34.35
12213;BME280;6169;44.158;22.788;2023-02-15T10:20:17;102520.13;;;13.17;34.53
12213;BME280;6169;44.158;22.788;2023-02-15T10:25:31;102514.63;;;13.32;34.45
12213;BME280;6169;44.158;22.788;2023-02-15T10:30:43;102461.06;;;13.60;33.34
12213;BME280;6169;44.158;22.788;2023-02-15T10:35:52;102512.38;;;13.35;33.83
12213;BME280;6169;44.158;22.788;2023-02-15T10:41:08;102489.44;;;14.07;33.06
12213;BME280;6169;44.158;22.788;2023-02-15T10:46:27;102484.53;;;14.31;32.62
12213;BME280;6169;44.158;22.788;2023-02-15T10:51:37;102473.47;;;14.52;32.91
12213;BME280;6169;44.158;22.788;2023-02-15T10:56:48;102469.19;;;14.23;32.53
12213;BME280;6169;44.158;22.788;2023-02-15T11:01:58;102459.59;;;14.34;33.29
12213;BME280;6169;44.158;22.788;2023-02-15T11:07:04;102453.78;;;14.50;32.89
12213;BME280;6169;44.158;22.788;2023-02-15T11:12:12;102451.97;;;14.91;32.46
12213;BME280;6169;44.158;22.788;2023-02-15T11:17:21;102455.91;;;14.14;32.46
12213;BME280;6169;44.158;22.788;2023-02-15T11:22:24;102441.47;;;14.88;31.40
12213;BME280;6169;44.158;22.788;2023-02-15T11:27:29;102451.94;;;14.71;31.99
12213;BME280;6169;44.158;22.788;2023-02-15T11:32:37;102439.19;;;15.25;30.65
12213;BME280;6169;44.158;22.788;2023-02-15T11:37:44;102437.88;;;14.81;31.41
12213;BME280;6169;44.158;22.788;2023-02-15T11:42:48;102430.78;;;15.39;30.91
12213;BME280;6169;44.158;22.788;2023-02-15T11:47:53;102422.59;;;15.26;30.99
12213;BME280;6169;44.158;22.788;2023-02-15T11:52:59;102412.00;;;15.83;31.63
12213;BME280;6169;44.158;22.788;2023-02-15T11:58:06;102409.50;;;15.75;32.46
12213;BME280;6169;44.158;22.788;2023-02-15T12:03:16;102397.69;;;15.87;32.51
12213;BME280;6169;44.158;22.788;2023-02-15T12:08:21;102400.06;;;15.64;32.75
12213;BME280;6169;44.158;22.788;2023-02-15T12:13:24;102397.38;;;15.44;33.40
12213;BME280;6169;44.158;22.788;2023-02-15T12:18:35;102389.19;;;15.37;32.42
12213;BME280;6169;44.158;22.788;2023-02-15T12:23:47;102403.72;;;16.09;32.87
12213;BME280;6169;44.158;22.788;2023-02-15T12:28:51;102391.22;;;15.75;32.76
12213;BME280;6169;44.158;22.788;2023-02-15T12:33:57;102389.91;;;15.84;32.92
12213;BME280;6169;44.158;22.788;2023-02-15T12:39:04;102389.56;;;16.26;31.85
12213;BME280;6169;44.158;22.788;2023-02-15T12:44:15;102386.97;;;15.86;32.69
12213;BME280;6169;44.158;22.788;2023-02-15T12:49:20;102382.09;;;15.30;32.72
12213;BME280;6169;44.158;22.788;2023-02-15T12:54:29;102375.53;;;15.37;33.38
12213;BME280;6169;44.158;22.788;2023-02-15T12:59:32;102382.25;;;15.48;33.09
12213;BME280;6169;44.158;22.788;2023-02-15T13:04:36;102374.94;;;15.29;33.75
12213;BME280;6169;44.158;22.788;2023-02-15T13:09:38;102382.41;;;15.66;34.01
12213;BME280;6169;44.158;22.788;2023-02-15T13:14:44;102383.34;;;15.07;34.56
12213;BME280;6169;44.158;22.788;2023-02-15T13:19:50;102389.34;;;15.69;33.80
12213;BME280;6169;44.158;22.788;2023-02-15T13:24:56;102376.84;;;15.08;34.51
12213;BME280;6169;44.158;22.788;2023-02-15T13:30:03;102379.56;;;15.08;34.00
12213;BME280;6169;44.158;22.788;2023-02-15T13:35:15;102389.44;;;15.29;34.54
12213;BME280;6169;44.158;22.788;2023-02-15T13:40:22;102381.84;;;14.98;34.41
12213;BME280;6169;44.158;22.788;2023-02-15T13:45:36;102389.41;;;15.03;34.69
12213;BME280;6169;44.158;22.788;2023-02-15T13:51:04;102387.50;;;14.63;35.08
12213;BME280;6169;44.158;22.788;2023-02-15T13:56:15;102389.81;;;14.60;34.91
12213;BME280;6169;44.158;22.788;2023-02-15T14:01:28;102384.31;;;14.40;35.74
12213;BME280;6169;44.158;22.788;2023-02-15T14:06:54;102388.16;;;14.85;34.84
12213;BME280;6169;44.158;22.788;2023-02-15T14:12:14;102385.78;;;14.42;35.56
12213;BME280;6169;44.158;22.788;2023-02-15T14:17:27;102381.41;;;14.54;35.82
12213;BME280;6169;44.158;22.788;2023-02-15T14:22:36;102387.22;;;13.83;36.33
12213;BME280;6169;44.158;22.788;2023-02-15T14:27:48;102392.16;;;14.08;36.33
12213;BME280;6169;44.158;22.788;2023-02-15T14:32:57;102396.16;;;13.71;36.74
12213;BME280;6169;44.158;22.788;2023-02-15T14:38:10;102393.66;;;13.69;36.76
12213;BME280;6169;44.158;22.788;2023-02-15T14:43:23;102391.97;;;14.09;36.50
12213;BME280;6169;44.158;22.788;2023-02-15T14:48:30;102390.19;;;14.37;36.19
12213;BME280;6169;44.158;22.788;2023-02-15T14:53:37;102386.34;;;14.24;36.39
12213;BME280;6169;44.158;22.788;2023-02-15T14:58:55;102395.75;;;14.08;37.36
12213;BME280;6169;44.158;22.788;2023-02-15T15:03:59;102400.63;;;14.20;37.03
12213;BME280;6169;44.158;22.788;2023-02-15T15:09:13;102400.75;;;13.63;38.31
12213;BME280;6169;44.158;22.788;2023-02-15T15:14:39;102400.78;;;13.35;38.52
12213;BME280;6169;44.158;22.788;2023-02-15T15:20:03;102401.06;;;12.97;39.39
12213;BME280;6169;44.158;22.788;2023-02-15T15:25:12;102403.22;;;12.59;39.66
12213;BME280;6169;44.158;22.788;2023-02-15T15:30:50;102394.66;;;12.41;39.73
12213;BME280;6169;44.158;22.788;2023-02-15T15:36:09;102404.47;;;12.57;39.53
12213;BME280;6169;44.158;22.788;2023-02-15T15:41:24;102397.66;;;12.46;40.34
12213;BME280;6169;44.158;22.788;2023-02-15T15:47:08;102414.28;;;12.21;40.50
12213;BME280;6169;44.158;22.788;2023-02-15T15:52:15;102410.91;;;12.19;41.23
12213;BME280;6169;44.158;22.788;2023-02-15T15:57:23;102411.44;;;11.63;41.79
12213;BME280;6169;44.158;22.788;2023-02-15T16:02:28;102412.16;;;12.02;41.29
12213;BME280;6169;44.158;22.788;2023-02-15T16:07:31;102420.06;;;11.29;43.07
12213;BME280;6169;44.158;22.788;2023-02-15T16:12:36;102418.63;;;10.81;43.90
12213;BME280;6169;44.158;22.788;2023-02-15T16:17:41;102421.53;;;11.02;42.92
12213;BME280;6169;44.158;22.788;2023-02-15T16:22:45;102433.00;;;11.27;42.25
12213;BME280;6169;44.158;22.788;2023-02-15T16:27:49;102439.13;;;11.59;41.78
12213;BME280;6169;44.158;22.788;2023-02-15T16:33:04;102438.63;;;11.03;43.36
12213;BME280;6169;44.158;22.788;2023-02-15T16:38:09;102443.22;;;10.79;44.70
12213;BME280;6169;44.158;22.788;2023-02-15T16:43:17;102445.16;;;10.70;44.91
12213;BME280;6169;44.158;22.788;2023-02-15T16:48:24;102441.41;;;10.40;45.43
12213;BME280;6169;44.158;22.788;2023-02-15T16:53:28;102449.72;;;9.91;45.76
12213;BME280;6169;44.158;22.788;2023-02-15T16:58:36;102455.47;;;9.96;45.91
12213;BME280;6169;44.158;22.788;2023-02-15T17:03:40;102448.28;;;10.51;44.34
12213;BME280;6169;44.158;22.788;2023-02-15T17:08:44;102452.50;;;10.22;44.78
12213;BME280;6169;44.158;22.788;2023-02-15T17:14:17;102452.28;;;10.32;44.54
12213;BME280;6169;44.158;22.788;2023-02-15T17:19:24;102453.03;;;10.57;43.90
12213;BME280;6169;44.158;22.788;2023-02-15T17:24:36;102433.53;;;10.85;42.96
12213;BME280;6169;44.158;22.788;2023-02-15T17:29:43;102450.00;;;10.98;42.25
12213;BME280;6169;44.158;22.788;2023-02-15T17:40:19;102454.16;;;9.84;45.28
12213;BME280;6169;44.158;22.788;2023-02-15T17:45:26;102414.13;;;9.63;45.41
12213;BME280;6169;44.158;22.788;2023-02-15T17:50:32;102461.88;;;9.39;45.94
12213;BME280;6169;44.158;22.788;2023-02-15T17:55:35;102461.97;;;9.71;45.48
12213;BME280;6169;44.158;22.788;2023-02-15T18:00:43;102465.50;;;9.88;44.98
12213;BME280;6169;44.158;22.788;2023-02-15T18:06:03;102470.66;;;9.41;46.77
12213;BME280;6169;44.158;22.788;2023-02-15T18:11:23;102434.34;;;9.19;46.65
12213;BME280;6169;44.158;22.788;2023-02-15T18:16:39;102467.13;;;9.41;46.62
12213;BME280;6169;44.158;22.788;2023-02-15T18:21:43;102456.25;;;9.66;45.14
12213;BME280;6169;44.158;22.788;2023-02-15T18:26:46;102466.59;;;9.13;47.22
12213;BME280;6169;44.158;22.788;2023-02-15T18:31:52;102470.81;;;8.91;47.33
12213;BME280;6169;44.158;22.788;2023-02-15T18:36:55;102470.47;;;9.02;47.21
12213;BME280;6169;44.158;22.788;2023-02-15T18:41:58;102466.75;;;9.11;46.87
12213;BME280;6169;44.158;22.788;2023-02-15T18:47:02;102477.56;;;9.03;47.16
12213;BME280;6169;44.158;22.788;2023-02-15T18:52:04;102470.63;;;8.92;47.51
12213;BME280;6169;44.158;22.788;2023-02-15T18:57:11;102467.09;;;9.08;47.04
12213;BME280;6169;44.158;22.788;2023-02-15T19:02:16;102472.00;;;9.29;46.65
12213;BME280;6169;44.158;22.788;2023-02-15T19:07:21;102476.22;;;8.99;47.33
12213;BME280;6169;44.158;22.788;2023-02-15T19:12:24;102469.94;;;8.82;47.93
12213;BME280;6169;44.158;22.788;2023-02-15T19:17:28;102465.34;;;8.66;48.32
12213;BME280;6169;44.158;22.788;2023-02-15T19:22:31;102465.53;;;8.81;48.27
12213;BME280;6169;44.158;22.788;2023-02-15T19:27:34;102470.78;;;8.83;47.97
12213;BME280;6169;44.158;22.788;2023-02-15T19:32:38;102460.94;;;8.49;49.03
12213;BME280;6169;44.158;22.788;2023-02-15T19:37:43;102470.72;;;8.50;49.24
12213;BME280;6169;44.158;22.788;2023-02-15T19:42:48;102470.28;;;8.20;50.23
12213;BME280;6169;44.158;22.788;2023-02-15T19:47:51;102471.75;;;8.57;48.59
12213;BME280;6169;44.158;22.788;2023-02-15T19:52:54;102464.63;;;8.40;50.00
12213;BME280;6169;44.158;22.788;2023-02-15T19:57:58;102471.88;;;8.47;48.96
12213;BME280;6169;44.158;22.788;2023-02-15T20:03:02;102464.16;;;8.61;48.79
12213;BME280;6169;44.158;22.788;2023-02-15T20:08:05;102469.34;;;8.46;49.02
12213;BME280;6169;44.158;22.788;2023-02-15T20:13:12;102469.97;;;8.23;49.77
12213;BME280;6169;44.158;22.788;2023-02-15T20:18:17;102395.97;;;7.39;50.15
12213;BME280;6169;44.158;22.788;2023-02-15T20:23:21;102467.56;;;8.12;49.36
12213;BME280;6169;44.158;22.788;2023-02-15T20:28:26;102467.41;;;7.88;49.84
12213;BME280;6169;44.158;22.788;2023-02-15T20:33:30;102466.00;;;8.10;49.15
12213;BME280;6169;44.158;22.788;2023-02-15T20:38:32;102470.50;;;7.93;49.86
12213;BME280;6169;44.158;22.788;2023-02-15T20:43:34;102465.28;;;7.99;49.45
12213;BME280;6169;44.158;22.788;2023-02-15T20:48:38;102461.59;;;8.00;49.79
12213;BME280;6169;44.158;22.788;2023-02-15T20:53:40;102465.50;;;8.06;49.50
12213;BME280;6169;44.158;22.788;2023-02-15T20:58:42;102475.03;;;7.92;49.76
12213;BME280;6169;44.158;22.788;2023-02-15T21:03:46;102459.88;;;7.99;49.27
12213;BME280;6169;44.158;22.788;2023-02-15T21:08:48;102476.84;;;7.83;49.31
12213;BME280;6169;44.158;22.788;2023-02-15T21:13:50;102466.47;;;7.71;50.06
12213;BME280;6169;44.158;22.788;2023-02-15T21:18:54;102471.38;;;7.49;50.54
12213;BME280;6169;44.158;22.788;2023-02-15T21:23:56;102468.50;;;7.51;50.83
12213;BME280;6169;44.158;22.788;2023-02-15T21:28:58;102468.72;;;7.31;51.83
12213;BME280;6169;44.158;22.788;2023-02-15T21:34:03;102466.34;;;6.92;52.66
12213;BME280;6169;44.158;22.788;2023-02-15T21:39:06;102469.19;;;6.73;54.21
12213;BME280;6169;44.158;22.788;2023-02-15T21:44:14;102465.13;;;6.51;54.05
12213;BME280;6169;44.158;22.788;2023-02-15T21:49:35;102460.41;;;6.53;54.31
12213;BME280;6169;44.158;22.788;2023-02-15T21:54:38;102474.53;;;6.65;54.10
12213;BME280;6169;44.158;22.788;2023-02-15T21:59:40;102472.78;;;6.46;54.23
12213;BME280;6169;44.158;22.788;2023-02-15T22:04:44;102474.34;;;6.84;52.99
12213;BME280;6169;44.158;22.788;2023-02-15T22:09:46;102476.44;;;7.08;53.34
12213;BME280;6169;44.158;22.788;2023-02-15T22:14:49;102486.00;;;7.03;53.25
12213;BME280;6169;44.158;22.788;2023-02-15T22:19:55;102479.00;;;7.10;53.31
12213;BME280;6169;44.158;22.788;2023-02-15T22:24:57;102484.28;;;7.20;53.03
12213;BME280;6169;44.158;22.788;2023-02-15T22:29:59;102476.06;;;7.21;52.83
12213;BME280;6169;44.158;22.788;2023-02-15T22:35:05;102474.41;;;7.28;52.14
12213;BME280;6169;44.158;22.788;2023-02-15T22:40:13;102304.66;;;6.40;50.37
12213;BME280;6169;44.158;22.788;2023-02-15T22:45:17;102481.66;;;7.28;51.37
12213;BME280;6169;44.158;22.788;2023-02-15T22:50:23;102486.13;;;7.19;50.84
12213;BME280;6169;44.158;22.788;2023-02-15T22:55:28;102484.28;;;6.66;52.65
12213;BME280;6169;44.158;22.788;2023-02-15T23:00:33;102482.13;;;6.69;52.70
12213;BME280;6169;44.158;22.788;2023-02-15T23:05:37;102483.13;;;6.86;52.58
12213;BME280;6169;44.158;22.788;2023-02-15T23:10:40;102481.69;;;7.10;51.48
12213;BME280;6169;44.158;22.788;2023-02-15T23:15:45;102483.38;;;7.11;51.24
12213;BME280;6169;44.158;22.788;2023-02-15T23:20:51;102358.97;;;6.08;51.21
12213;BME280;6169;44.158;22.788;2023-02-15T23:25:55;102471.25;;;6.61;52.41
12213;BME280;6169;44.158;22.788;2023-02-15T23:30:58;102479.34;;;6.61;52.90
12213;BME280;6169;44.158;22.788;2023-02-15T23:36:02;102479.59;;;6.68;52.44
12213;BME280;6169;44.158;22.788;2023-02-15T23:41:08;102478.50;;;6.61;53.02
12213;BME280;6169;44.158;22.788;2023-02-15T23:46:34;102440.69;;;6.35;53.20
12213;BME280;6169;44.158;22.788;2023-02-15T23:51:42;102493.59;;;6.54;52.49
12213;BME280;6169;44.158;22.788;2023-02-15T23:56:47;102488.75;;;6.30;52.58
